Time;durP1;ratioP1;P1;durP2;ratioP2;P2;SDS_P1;SDS_P2;PMS_P1;PMS_P2;Temp;Humidity;BMP_temperature;BMP_pressure;BME280_temperature;BME280_humidity;BME280_pressure;Samples;Min_cycle;Max_cycle;Signal;HPM_P1;HPM_P2
2023/03/26 00:00:39;;;;;;;14.38;1.85;;;7.70;99.90;;;;;;4970177;28;20026;-77
2023/03/26 00:03:05;;;;;;;13.30;2.42;;;7.60;99.90;;;;;;4961129;28;20043;-80
2023/03/26 00:05:31;;;;;;;12.13;2.58;;;7.60;99.90;;;;;;4973299;28;20089;-77
2023/03/26 00:07:57;;;;;;;8.55;1.30;;;7.60;99.90;;;;;;4958683;28;20040;-78
2023/03/26 00:10:24;;;;;;;7.93;0.88;;;7.70;99.90;;;;;;4956831;28;20026;-77
2023/03/26 00:12:50;;;;;;;11.82;2.00;;;7.80;99.90;;;;;;4954249;28;20034;-77
2023/03/26 00:15:15;;;;;;;8.82;1.25;;;7.80;99.90;;;;;;4960469;28;20540;-78
2023/03/26 00:17:41;;;;;;;4.32;1.95;;;7.80;99.90;;;;;;4980989;28;20084;-78
2023/03/26 00:20:07;;;;;;;10.85;1.75;;;7.80;99.90;;;;;;4973951;28;20038;-79
2023/03/26 00:22:33;;;;;;;11.10;2.40;;;7.80;99.90;;;;;;4971485;28;20088;-78
2023/03/26 00:25:00;;;;;;;3.53;1.40;;;7.80;99.90;;;;;;4957186;28;20489;-78
2023/03/26 00:27:28;;;;;;;3.50;1.50;;;7.80;99.90;;;;;;4989888;28;20042;-78
2023/03/26 00:29:55;;;;;;;10.35;1.67;;;7.90;99.90;;;;;;4971825;28;20061;-77
2023/03/26 00:32:21;;;;;;;14.65;2.33;;;7.90;99.90;;;;;;4974921;28;20060;-79
2023/03/26 00:34:46;;;;;;;14.20;1.85;;;7.90;99.90;;;;;;4988738;28;20054;-77
2023/03/26 00:37:13;;;;;;;14.73;3.00;;;7.90;99.90;;;;;;4968581;28;20050;-77
2023/03/26 00:39:38;;;;;;;8.98;1.27;;;7.90;99.90;;;;;;4966608;28;20033;-78
2023/03/26 00:42:05;;;;;;;10.23;1.80;;;7.90;99.90;;;;;;4965972;28;20034;-78
2023/03/26 00:44:34;;;;;;;4.00;0.85;;;7.90;99.90;;;;;;4961632;28;20704;-78
2023/03/26 00:46:59;;;;;;;19.63;2.20;;;7.90;99.90;;;;;;4954663;28;20394;-78
2023/03/26 00:49:29;;;;;;;9.80;1.95;;;7.90;99.90;;;;;;4954951;28;20044;-78
2023/03/26 00:51:55;;;;;;;13.02;2.13;;;7.90;99.90;;;;;;4959960;28;20058;-80
2023/03/26 00:54:21;;;;;;;21.02;2.88;;;7.90;99.90;;;;;;4955078;28;20072;-79
2023/03/26 00:56:46;;;;;;;14.18;1.80;;;7.90;99.90;;;;;;4971061;28;20105;-80
2023/03/26 00:59:12;;;;;;;16.92;2.63;;;7.90;99.90;;;;;;4968504;28;20027;-80
2023/03/26 01:01:38;;;;;;;19.23;3.30;;;7.90;99.90;;;;;;4951282;28;20029;-79
2023/03/26 01:04:25;;;;;;;16.25;2.92;;;8.00;99.90;;;;;;4960327;28;20374;-80
2023/03/26 01:06:51;;;;;;;20.50;2.97;;;7.90;99.90;;;;;;4974955;28;20053;-80
2023/03/26 01:09:17;;;;;;;16.15;2.40;;;7.90;99.90;;;;;;4958693;28;20486;-79
2023/03/26 01:11:43;;;;;;;11.55;2.00;;;7.90;99.90;;;;;;4963635;28;20029;-79
2023/03/26 01:14:22;;;;;;;17.23;2.45;;;7.90;99.90;;;;;;4975704;28;20036;-80
2023/03/26 01:16:53;;;;;;;12.55;2.97;;;7.90;99.90;;;;;;4962642;28;20062;-80
2023/03/26 01:19:29;;;;;;;5.53;1.27;;;7.90;99.90;;;;;;4957633;28;20168;-78
2023/03/26 01:21:56;;;;;;;16.25;3.63;;;7.90;99.90;;;;;;4973247;28;20044;-78
2023/03/26 01:24:22;;;;;;;17.35;2.45;;;7.90;99.90;;;;;;4957918;28;20038;-79
2023/03/26 01:26:51;;;;;;;16.55;2.80;;;7.90;99.90;;;;;;4955659;28;20031;-79
2023/03/26 01:29:45;;;;;;;15.45;2.85;;;7.90;99.90;;;;;;4988634;28;20034;-79
2023/03/26 01:32:46;;;;;;;7.28;1.20;;;7.80;99.90;;;;;;4977786;28;20525;-79
2023/03/26 01:35:18;;;;;;;22.77;4.18;;;7.90;99.90;;;;;;4988913;28;20049;-79
2023/03/26 01:37:57;;;;;;;16.63;2.63;;;7.90;99.90;;;;;;4954280;28;20034;-79
2023/03/26 01:40:27;;;;;;;26.13;3.83;;;7.90;99.90;;;;;;4992714;28;20029;-82
2023/03/26 01:43:16;;;;;;;21.90;3.22;;;7.90;99.90;;;;;;4976632;28;20026;-79
2023/03/26 01:45:43;;;;;;;20.98;2.95;;;7.90;99.90;;;;;;4969093;28;20549;-78
2023/03/26 01:48:09;;;;;;;14.23;2.85;;;7.80;99.90;;;;;;4983142;28;20479;-79
2023/03/26 01:50:34;;;;;;;18.77;2.55;;;7.80;99.90;;;;;;4972163;28;20034;-79
2023/03/26 01:53:00;;;;;;;11.55;2.22;;;7.80;99.90;;;;;;4953248;28;20026;-80
2023/03/26 01:55:32;;;;;;;32.80;4.25;;;7.80;99.90;;;;;;4955184;28;20033;-79
2023/03/26 01:58:07;;;;;;;16.73;2.63;;;7.90;99.90;;;;;;4960100;28;20076;-79
2023/03/26 02:00:37;;;;;;;1.45;1.08;;;7.80;99.90;;;;;;5004039;28;20038;-79
2023/03/26 02:03:17;;;;;;;8.20;1.83;;;7.90;99.90;;;;;;4966429;28;20041;-79
2023/03/26 02:06:04;;;;;;;19.33;3.20;;;7.90;99.90;;;;;;4984386;28;20635;-79
2023/03/26 02:08:36;;;;;;;23.38;2.65;;;7.90;99.90;;;;;;4955682;28;20077;-80
2023/03/26 02:11:11;;;;;;;14.77;2.40;;;7.80;99.90;;;;;;5056386;28;20388;-79
2023/03/26 02:13:41;;;;;;;14.73;2.10;;;7.70;99.90;;;;;;5043783;28;20032;-79
2023/03/26 02:16:08;;;;;;;18.75;2.20;;;7.70;99.90;;;;;;5039342;28;20040;-81
2023/03/26 02:18:37;;;;;;;16.63;2.33;;;7.80;99.90;;;;;;5054489;28;20033;-80
2023/03/26 02:21:18;;;;;;;19.63;4.03;;;7.70;99.90;;;;;;5054168;28;20032;-80
2023/03/26 02:23:47;;;;;;;19.02;3.05;;;7.70;99.90;;;;;;5042113;28;20044;-78
2023/03/26 02:26:14;;;;;;;23.52;3.67;;;7.70;99.90;;;;;;5054856;28;20022;-79
2023/03/26 02:28:40;;;;;;;18.70;2.70;;;7.70;99.90;;;;;;5038500;28;20051;-78
2023/03/26 02:31:08;;;;;;;29.13;3.13;;;7.70;99.90;;;;;;5054862;28;20044;-79
2023/03/26 02:33:34;;;;;;;20.48;2.95;;;7.60;99.90;;;;;;5041353;28;20028;-79
2023/03/26 02:36:00;;;;;;;17.25;2.50;;;7.70;99.90;;;;;;5056048;28;20096;-80
2023/03/26 02:38:32;;;;;;;20.75;3.45;;;7.50;99.90;;;;;;5044567;28;20480;-79
2023/03/26 02:40:58;;;;;;;19.83;3.03;;;7.60;99.90;;;;;;5025409;28;20051;-79
2023/03/26 02:43:24;;;;;;;22.88;3.83;;;7.60;99.90;;;;;;5031152;28;20025;-80
2023/03/26 02:45:49;;;;;;;20.50;4.03;;;7.60;99.90;;;;;;5040498;28;20109;-80
2023/03/26 02:48:15;;;;;;;18.38;2.90;;;7.60;99.90;;;;;;5024386;28;20471;-79
2023/03/26 02:50:41;;;;;;;10.02;1.92;;;7.60;99.90;;;;;;5022973;28;20063;-81
2023/03/26 02:53:06;;;;;;;15.45;2.53;;;7.60;99.90;;;;;;5024001;28;20036;-80
2023/03/26 02:55:32;;;;;;;17.42;3.03;;;7.60;99.90;;;;;;5021996;28;20146;-80
2023/03/26 02:57:57;;;;;;;18.80;2.03;;;7.70;99.90;;;;;;5016512;28;20176;-79
2023/03/26 03:00:24;;;;;;;20.08;3.42;;;7.70;99.90;;;;;;5036744;28;20613;-79
2023/03/26 03:02:51;;;;;;;6.60;1.25;;;7.70;99.90;;;;;;5020458;28;20036;-80
2023/03/26 03:05:17;;;;;;;16.33;2.67;;;7.70;99.90;;;;;;5029487;28;20048;-79
2023/03/26 03:07:45;;;;;;;19.02;3.00;;;7.70;99.90;;;;;;5029883;28;20026;-80
2023/03/26 03:10:12;;;;;;;17.15;2.60;;;7.70;99.90;;;;;;5016712;28;20144;-80
2023/03/26 03:12:39;;;;;;;18.20;3.53;;;7.80;99.90;;;;;;5009409;28;20021;-80
2023/03/26 03:15:04;;;;;;;16.58;2.42;;;7.80;99.90;;;;;;5036160;28;20666;-80
2023/03/26 03:17:30;;;;;;;13.30;2.58;;;7.80;99.90;;;;;;5016504;28;20083;-80
2023/03/26 03:19:56;;;;;;;15.82;2.38;;;7.80;99.90;;;;;;5012487;28;20026;-79
2023/03/26 03:22:21;;;;;;;20.25;1.92;;;7.80;99.90;;;;;;5004544;28;20041;-80
2023/03/26 03:24:47;;;;;;;15.93;3.20;;;7.80;99.90;;;;;;5008305;28;20025;-80
2023/03/26 03:27:13;;;;;;;12.20;2.67;;;7.90;99.90;;;;;;5003510;28;20517;-80
2023/03/26 03:29:38;;;;;;;22.85;3.35;;;7.80;99.90;;;;;;5007643;28;20087;-80
2023/03/26 03:32:04;;;;;;;19.42;2.50;;;7.80;99.90;;;;;;5020956;28;20028;-80
2023/03/26 03:34:29;;;;;;;13.40;2.47;;;7.70;99.90;;;;;;5006724;28;20090;-80
2023/03/26 03:36:55;;;;;;;15.43;2.97;;;7.90;99.90;;;;;;5006459;28;20037;-80
2023/03/26 03:39:21;;;;;;;18.52;3.28;;;;;;;;;;5021566;28;20041;-80
2023/03/26 03:41:48;;;;;;;21.15;2.90;;;;;;;;;;5006321;28;20567;-80
2023/03/26 03:44:14;;;;;;;18.52;4.03;;;;;;;;;;5020908;28;20030;-80
2023/03/26 03:46:40;;;;;;;15.70;2.85;;;;;;;;;;5005045;28;20034;-80
2023/03/26 03:49:06;;;;;;;27.38;3.13;;;;;;;;;;5021246;28;20548;-80
2023/03/26 03:51:32;;;;;;;14.18;2.53;;;;;;;;;;5028963;28;20545;-80
2023/03/26 03:53:58;;;;;;;16.50;3.03;;;;;;;;;;5030291;28;20813;-80
2023/03/26 03:56:24;;;;;;;13.18;2.53;;;;;;;;;;5008199;28;20035;-80
2023/03/26 03:58:50;;;;;;;15.40;2.50;;;;;;;;;;5017038;28;20537;-80
2023/03/26 04:01:17;;;;;;;21.55;3.25;;;;;;;;;;5032887;28;20061;-80
2023/03/26 04:03:45;;;;;;;14.98;3.10;;;;;;;;;;5025486;28;20113;-80
2023/03/26 04:06:11;;;;;;;12.88;2.42;;;;;;;;;;5019429;28;20105;-80
2023/03/26 04:08:37;;;;;;;19.65;2.67;;;;;;;;;;5015289;28;20025;-80
2023/03/26 04:11:04;;;;;;;20.60;2.45;;;;;;;;;;5017874;28;20045;-80
2023/03/26 04:13:30;;;;;;;16.77;2.53;;;;;;;;;;5033627;28;20033;-80
2023/03/26 04:15:56;;;;;;;14.10;2.78;;;;;;;;;;5017900;28;20041;-80
2023/03/26 04:18:22;;;;;;;23.75;2.83;;;;;;;;;;5016169;28;20030;-79
2023/03/26 04:20:48;;;;;;;9.55;2.33;;;;;;;;;;5023372;28;20025;-80
2023/03/26 04:23:14;;;;;;;18.83;2.75;;;;;;;;;;5027097;28;20504;-81
2023/03/26 04:25:42;;;;;;;11.85;2.22;;;;;;;;;;5026664;28;20042;-79
2023/03/26 04:28:10;;;;;;;14.43;2.35;;;;;;;;;;5022180;28;20033;-81
2023/03/26 04:30:37;;;;;;;16.83;3.00;;;;;;;;;;5023237;28;20500;-79
2023/03/26 04:33:03;;;;;;;19.88;3.13;;;;;;;;;;5001649;28;20611;-79
2023/03/26 04:35:33;;;;;;;16.98;2.53;;;;;;;;;;5019826;28;20743;-80
2023/03/26 04:37:59;;;;;;;15.25;2.63;;;;;;;;;;5034119;28;20405;-80
2023/03/26 04:40:29;;;;;;;21.85;2.80;;;;;;;;;;5021057;28;20030;-80
2023/03/26 04:42:57;;;;;;;11.60;3.20;;;;;;;;;;5020828;28;20492;-80
2023/03/26 04:45:23;;;;;;;16.00;2.53;;;;;;;;;;5023776;28;20026;-80
2023/03/26 04:47:49;;;;;;;11.13;2.60;;;;;;;;;;5022365;28;20817;-80
2023/03/26 04:50:15;;;;;;;21.13;2.33;;;;;;;;;;5027526;28;20041;-80
2023/03/26 04:52:41;;;;;;;11.15;2.35;;;;;;;;;;5029504;28;20397;-80
2023/03/26 04:55:12;;;;;;;11.52;2.25;;;;;;;;;;5029455;28;20097;-80
2023/03/26 04:57:41;;;;;;;12.10;2.58;;;;;;;;;;5016537;28;20494;-80
2023/03/26 05:00:13;;;;;;;12.18;2.45;;;;;;;;;;5024940;28;20053;-79
2023/03/26 05:02:40;;;;;;;15.10;2.85;;;;;;;;;;5002390;28;20044;-80
2023/03/26 05:05:06;;;;;;;12.55;2.13;;;;;;;;;;5029735;28;20858;-80
2023/03/26 05:07:32;;;;;;;15.70;2.80;;;;;;;;;;5024959;28;20040;-80
2023/03/26 05:10:02;;;;;;;15.15;3.80;;;;;;;;;;5029495;28;20054;-80
2023/03/26 05:12:28;;;;;;;10.27;1.90;;;;;;;;;;5024992;28;20033;-80
2023/03/26 05:14:54;;;;;;;14.20;3.13;;;;;;;;;;5029935;28;20432;-80
2023/03/26 05:17:20;;;;;;;11.50;2.15;;;;;;;;;;5029425;28;20026;-80
2023/03/26 05:19:46;;;;;;;14.38;2.38;;;;;;;;;;5013258;28;20030;-80
2023/03/26 05:22:12;;;;;;;17.48;2.25;;;;;;;;;;5012756;28;20121;-80
2023/03/26 05:24:38;;;;;;;12.05;1.95;;;;;;;;;;5024052;28;20068;-80
2023/03/26 05:27:05;;;;;;;14.30;2.35;;;;;;;;;;5018187;28;20053;-81
2023/03/26 05:29:31;;;;;;;21.85;4.35;;;;;;;;;;5025150;28;20045;-80
2023/03/26 05:31:57;;;;;;;19.05;3.28;;;;;;;;;;5023262;28;20110;-80
2023/03/26 05:34:23;;;;;;;20.70;3.30;;;;;;;;;;5022909;28;20124;-79
2023/03/26 05:36:49;;;;;;;17.60;2.60;;;;;;;;;;5021401;28;20574;-79
2023/03/26 05:39:15;;;;;;;16.52;2.58;;;;;;;;;;5033011;28;20029;-79
2023/03/26 05:41:41;;;;;;;13.52;2.00;;;;;;;;;;5020882;28;20478;-79
2023/03/26 05:44:07;;;;;;;18.48;3.40;;;;;;;;;;5017125;28;20085;-79
2023/03/26 05:46:33;;;;;;;16.17;3.08;;;;;;;;;;5019831;28;20025;-79
2023/03/26 05:48:59;;;;;;;17.10;3.30;;;;;;;;;;5015894;28;20033;-79
2023/03/26 05:51:25;;;;;;;16.02;2.20;;;;;;;;;;5024214;28;20032;-79
2023/03/26 05:53:51;;;;;;;9.60;2.50;;;;;;;;;;5005369;28;20030;-79
2023/03/26 05:56:17;;;;;;;7.45;1.55;;;;;;;;;;5030026;28;20879;-85
2023/03/26 05:58:43;;;;;;;11.02;2.10;;;;;;;;;;5008810;28;20022;-84
2023/03/26 06:01:15;;;;;;;9.75;1.98;;;;;;;;;;5030706;28;20494;-84
2023/03/26 06:03:43;;;;;;;8.18;2.00;;;;;;;;;;5003048;28;20037;-83
2023/03/26 06:06:16;;;;;;;9.35;1.45;;;;;;;;;;5003351;28;20501;-84
2023/03/26 06:08:45;;;;;;;9.63;1.58;;;;;;;;;;5019052;28;20029;-84
2023/03/26 06:11:11;;;;;;;12.80;2.28;;;;;;;;;;5023675;28;20402;-84
2023/03/26 06:13:37;;;;;;;19.70;3.58;;;;;;;;;;5007505;28;20416;-84
2023/03/26 06:16:04;;;;;;;29.55;4.80;;;;;;;;;;5023348;28;20440;-83
2023/03/26 06:18:30;;;;;;;15.60;2.55;;;;;;;;;;5023582;28;20122;-84
2023/03/26 06:20:56;;;;;;;8.65;1.70;;;;;;;;;;5028100;28;20029;-84
2023/03/26 06:23:22;;;;;;;14.32;2.55;;;;;;;;;;5021228;28;20041;-84
2023/03/26 06:25:48;;;;;;;19.90;2.70;;;;;;;;;;5024828;28;20520;-84
2023/03/26 06:28:14;;;;;;;8.95;2.10;;;;;;;;;;5022471;28;20022;-84
2023/03/26 06:30:40;;;;;;;11.20;2.00;;;;;;;;;;5003426;28;20033;-83
2023/03/26 06:33:06;;;;;;;8.77;2.00;;;;;;;;;;5032606;28;20044;-83
2023/03/26 06:35:32;;;;;;;8.68;3.10;;;;;;;;;;5005061;28;20116;-84
2023/03/26 06:37:58;;;;;;;16.60;2.28;;;;;;;;;;5036598;28;20042;-83
2023/03/26 06:40:25;;;;;;;11.60;2.20;;;;;;;;;;5024711;28;20125;-83
2023/03/26 06:42:51;;;;;;;6.53;1.98;;;;;;;;;;5003456;28;20029;-84
2023/03/26 06:45:17;;;;;;;10.80;2.30;;;;;;;;;;5033866;28;20036;-82
2023/03/26 06:47:43;;;;;;;15.02;1.65;;;;;;;;;;5027501;28;20140;-81
2023/03/26 06:50:10;;;;;;;9.40;2.30;;;;;;;;;;5032883;28;20094;-81
2023/03/26 06:52:36;;;;;;;13.48;2.47;;;;;;;;;;5019304;28;20025;-81
2023/03/26 06:55:05;;;;;;;19.15;3.03;;;;;;;;;;5028238;28;20034;-81
2023/03/26 06:57:31;;;;;;;16.30;2.33;;;;;;;;;;5031219;28;20060;-81
2023/03/26 06:59:57;;;;;;;12.38;2.55;;;;;;;;;;5034361;28;20405;-82
2023/03/26 07:02:23;;;;;;;20.25;2.80;;;;;;;;;;5037738;28;20026;-80
2023/03/26 07:04:48;;;;;;;10.32;2.00;;;7.90;99.90;;;;;;5027388;28;20482;-81
2023/03/26 07:07:14;;;;;;;8.68;1.88;;;7.70;99.90;;;;;;5019319;28;20040;-81
2023/03/26 07:09:40;;;;;;;9.30;2.15;;;7.80;99.90;;;;;;5026641;28;20037;-82
2023/03/26 07:12:05;;;;;;;6.47;1.88;;;8.00;99.90;;;;;;4993657;28;20030;-82
2023/03/26 07:14:31;;;;;;;8.93;1.90;;;7.90;99.90;;;;;;5007498;28;20541;-82
2023/03/26 07:17:00;;;;;;;12.13;2.25;;;7.90;99.90;;;;;;5026735;28;20103;-81
2023/03/26 07:19:25;;;;;;;11.40;3.50;;;7.90;99.90;;;;;;5037808;28;20525;-82
2023/03/26 07:21:51;;;;;;;8.32;2.10;;;8.10;99.90;;;;;;5023017;28;20064;-82
2023/03/26 07:24:17;;;;;;;13.27;1.95;;;8.20;99.90;;;;;;5006510;28;20053;-81
2023/03/26 07:26:48;;;;;;;11.68;1.85;;;8.00;99.90;;;;;;5004441;28;20454;-81
2023/03/26 07:29:45;;;;;;;9.10;2.05;;;8.30;99.90;;;;;;5026255;28;20046;-81
2023/03/26 07:32:42;;;;;;;12.80;2.85;;;8.00;99.90;;;;;;5004529;28;20026;-81
2023/03/26 07:35:20;;;;;;;13.75;2.50;;;8.10;99.90;;;;;;5019713;28;20025;-82
2023/03/26 07:38:34;;;;;;;16.50;3.10;;;8.60;99.90;;;;;;5021573;28;20536;-82
2023/03/26 07:41:14;;;;;;;7.38;1.42;;;8.20;99.90;;;;;;5004193;28;20059;-82
2023/03/26 07:43:59;;;;;;;13.63;2.03;;;8.00;99.90;;;;;;5025880;28;20034;-82
2023/03/26 07:46:27;;;;;;;11.55;2.40;;;8.20;99.90;;;;;;5022249;28;20032;-81
2023/03/26 07:48:57;;;;;;;10.43;2.65;;;8.00;99.90;;;;;;5007370;28;20033;-82
2023/03/26 07:51:23;;;;;;;21.20;3.55;;;8.20;99.90;;;;;;5007405;28;20018;-82
2023/03/26 07:53:48;;;;;;;13.18;2.30;;;8.20;99.90;;;;;;5012463;28;20026;-84
2023/03/26 07:56:18;;;;;;;14.75;3.30;;;8.20;99.90;;;;;;5007326;28;20026;-81
2023/03/26 07:59:02;;;;;;;14.27;4.18;;;8.20;99.90;;;;;;5027388;28;20095;-82
2023/03/26 08:01:43;;;;;;;17.13;2.67;;;8.20;99.90;;;;;;5027522;28;20794;-83
2023/03/26 08:04:30;;;;;;;15.27;4.43;;;8.30;99.90;;;;;;5026379;28;20049;-82
2023/03/26 08:07:02;;;;;;;12.10;2.47;;;8.30;99.90;;;;;;5033258;28;20053;-83
2023/03/26 08:09:40;;;;;;;14.00;2.92;;;8.30;99.90;;;;;;5026720;28;21452;-83
2023/03/26 08:12:24;;;;;;;9.75;2.30;;;8.20;99.90;;;;;;5011395;28;20057;-82
2023/03/26 08:15:02;;;;;;;9.55;2.88;;;8.30;99.90;;;;;;5035228;28;20030;-82
2023/03/26 08:17:43;;;;;;;19.30;3.03;;;8.40;99.90;;;;;;5017231;28;20044;-82
2023/03/26 08:20:29;;;;;;;15.93;3.15;;;8.40;99.90;;;;;;5013414;28;20504;-79
2023/03/26 08:23:26;;;;;;;17.08;3.45;;;8.40;99.90;;;;;;5007207;28;20025;-80
2023/03/26 08:26:33;;;;;;;11.65;3.60;;;8.50;99.90;;;;;;5022939;28;20141;-78
2023/03/26 08:29:19;;;;;;;21.40;3.05;;;8.50;99.90;;;;;;4978372;28;20025;-81
2023/03/26 08:31:45;;;;;;;11.68;3.20;;;8.30;99.90;;;;;;5018408;28;20056;-84
2023/03/26 08:34:11;;;;;;;10.35;2.97;;;8.40;99.90;;;;;;5006138;28;20516;-84
2023/03/26 08:36:36;;;;;;;11.43;3.22;;;8.40;99.90;;;;;;5010967;28;20017;-85
2023/03/26 08:39:02;;;;;;;17.70;3.72;;;8.90;99.90;;;;;;5017662;28;20030;-84
2023/03/26 08:41:47;;;;;;;15.18;3.72;;;8.80;99.90;;;;;;5017200;28;20560;-84
2023/03/26 08:44:30;;;;;;;13.55;3.70;;;8.70;99.90;;;;;;5019608;28;20557;-84
2023/03/26 08:47:09;;;;;;;12.55;4.10;;;8.70;99.90;;;;;;5034468;28;20030;-84
2023/03/26 08:49:59;;;;;;;23.65;6.80;;;8.80;99.90;;;;;;5009554;28;20044;-84
2023/03/26 08:52:34;;;;;;;18.58;4.45;;;8.90;99.90;;;;;;5021727;28;20033;-84
2023/03/26 08:55:07;;;;;;;10.27;3.25;;;8.90;99.90;;;;;;5026617;28;20034;-84
2023/03/26 08:58:00;;;;;;;25.13;7.35;;;9.70;99.90;;;;;;5035014;28;20037;-85
2023/03/26 09:00:50;;;;;;;11.02;3.58;;;9.10;99.90;;;;;;5025883;28;20049;-83
2023/03/26 09:03:33;;;;;;;34.33;8.85;;;9.00;99.90;;;;;;5032313;28;20034;-85
2023/03/26 09:06:33;;;;;;;36.75;8.90;;;9.10;99.90;;;;;;5018892;28;20065;-84
2023/03/26 09:09:37;;;;;;;26.92;7.32;;;9.10;99.90;;;;;;5017082;28;20545;-83
2023/03/26 09:12:24;;;;;;;14.77;3.78;;;9.10;99.90;;;;;;5025509;28;20643;-84
2023/03/26 09:14:54;;;;;;;22.10;7.07;;;9.20;99.90;;;;;;5026721;28;20029;-83
2023/03/26 09:17:47;;;;;;;13.38;3.90;;;9.30;99.90;;;;;;5024376;28;20496;-83
2023/03/26 09:20:25;;;;;;;24.35;8.13;;;9.40;99.90;;;;;;5021001;28;20025;-83
2023/03/26 09:23:17;;;;;;;25.25;8.75;;;9.40;99.90;;;;;;5023632;28;20033;-84
2023/03/26 09:26:17;;;;;;;11.30;3.35;;;9.30;99.90;;;;;;5002047;28;20482;-82
2023/03/26 09:29:07;;;;;;;10.00;3.38;;;9.40;99.90;;;;;;4985572;28;20033;-82
2023/03/26 09:31:36;;;;;;;10.90;3.28;;;9.40;99.90;;;;;;5019819;28;20045;-83
2023/03/26 09:34:18;;;;;;;19.83;4.97;;;9.70;99.90;;;;;;5020099;28;20046;-83
2023/03/26 09:37:23;;;;;;;18.73;4.50;;;9.60;99.90;;;;;;5017524;28;20025;-83
2023/03/26 09:39:55;;;;;;;21.00;5.55;;;9.50;99.90;;;;;;4994344;28;20119;-83
2023/03/26 09:42:36;;;;;;;12.35;4.05;;;9.60;99.90;;;;;;5003038;28;20060;-82
2023/03/26 09:45:14;;;;;;;21.13;6.05;;;10.20;99.90;;;;;;5022503;28;20117;-82
2023/03/26 09:47:54;;;;;;;15.15;4.68;;;9.60;99.90;;;;;;5006684;28;20389;-83
2023/03/26 09:50:37;;;;;;;28.48;7.30;;;9.60;99.90;;;;;;5019217;28;20034;-83
2023/03/26 09:53:29;;;;;;;11.77;2.75;;;9.60;99.90;;;;;;5027320;28;20044;-83
2023/03/26 09:55:57;;;;;;;8.05;2.65;;;9.70;99.90;;;;;;5026060;28;20639;-86
2023/03/26 09:58:57;;;;;;;7.50;2.08;;;9.80;99.90;;;;;;5029415;28;20215;-83
2023/03/26 10:01:30;;;;;;;13.65;4.35;;;9.90;99.90;;;;;;5043896;28;20160;-82
2023/03/26 10:04:36;;;;;;;14.60;3.67;;;9.90;99.90;;;;;;5024185;28;20573;-83
2023/03/26 10:07:04;;;;;;;14.27;4.45;;;9.80;99.90;;;;;;5037583;28;20032;-83
2023/03/26 10:09:49;;;;;;;9.70;2.08;;;10.20;99.90;;;;;;5010566;28;20040;-83
2023/03/26 10:12:38;;;;;;;7.47;2.08;;;10.10;99.90;;;;;;5028029;28;20052;-84
2023/03/26 10:15:27;;;;;;;12.98;3.70;;;10.10;99.90;;;;;;5001540;28;20044;-83
2023/03/26 10:18:01;;;;;;;9.80;3.28;;;10.00;99.90;;;;;;5034727;28;20022;-83
2023/03/26 10:20:41;;;;;;;8.85;3.35;;;10.00;99.90;;;;;;5022273;28;20045;-84
2023/03/26 10:23:15;;;;;;;8.80;3.35;;;10.00;99.90;;;;;;5025970;28;20390;-83
2023/03/26 10:26:15;;;;;;;10.63;3.83;;;10.00;99.90;;;;;;5023212;28;20030;-84
2023/03/26 10:29:03;;;;;;;14.10;4.28;;;10.00;99.90;;;;;;5021454;28;20117;-83
2023/03/26 10:31:56;;;;;;;8.63;2.83;;;9.70;99.90;;;;;;5027357;28;20050;-85
2023/03/26 10:34:39;;;;;;;13.65;4.28;;;9.70;99.90;;;;;;5019181;28;20501;-84
2023/03/26 10:37:15;;;;;;;6.90;2.08;;;9.70;99.90;;;;;;5031133;28;20032;-84
2023/03/26 10:39:54;;;;;;;10.45;2.90;;;9.90;99.90;;;;;;5008321;28;20033;-84
2023/03/26 10:42:32;;;;;;;6.85;1.48;;;9.70;99.90;;;;;;5014289;28;20034;-84
2023/03/26 10:45:13;;;;;;;12.23;3.38;;;9.50;99.90;;;;;;5030340;28;20411;-84
2023/03/26 10:47:58;;;;;;;4.43;1.98;;;9.70;99.90;;;;;;5028794;28;20552;-84
2023/03/26 10:50:35;;;;;;;10.05;3.95;;;9.80;99.90;;;;;;5018399;28;20111;-83
2023/03/26 10:53:11;;;;;;;10.98;3.55;;;9.80;99.90;;;;;;5027629;28;20079;-84
2023/03/26 10:55:38;;;;;;;11.00;4.55;;;9.70;99.90;;;;;;5013995;28;20559;-83
2023/03/26 10:58:25;;;;;;;10.45;3.20;;;9.80;99.90;;;;;;5022474;28;20161;-84
2023/03/26 11:01:01;;;;;;;9.52;3.45;;;9.80;99.90;;;;;;5041702;28;20033;-83
2023/03/26 11:03:42;;;;;;;4.03;1.33;;;10.00;99.90;;;;;;5031699;28;20081;-83
2023/03/26 11:06:31;;;;;;;6.30;1.52;;;9.80;99.90;;;;;;5024280;28;20037;-83
2023/03/26 11:09:02;;;;;;;3.00;0.90;;;9.90;99.90;;;;;;5033300;28;20448;-83
2023/03/26 11:11:34;;;;;;;6.85;1.95;;;9.90;99.90;;;;;;5039855;28;20038;-82
2023/03/26 11:14:00;;;;;;;4.28;1.30;;;9.60;99.90;;;;;;5023026;28;20468;-83
2023/03/26 11:16:57;;;;;;;3.53;1.40;;;9.50;99.90;;;;;;5024201;28;20141;-82
2023/03/26 11:19:51;;;;;;;5.78;1.98;;;9.50;99.90;;;;;;5035130;28;20057;-83
2023/03/26 11:22:32;;;;;;;4.45;1.08;;;9.60;99.90;;;;;;5026946;28;20032;-84
2023/03/26 11:25:04;;;;;;;9.52;2.60;;;9.60;99.90;;;;;;5024565;28;20520;-84
2023/03/26 11:27:57;;;;;;;5.70;1.20;;;9.60;99.90;;;;;;5024255;28;20026;-83
2023/03/26 11:30:46;;;;;;;4.72;1.73;;;9.60;99.90;;;;;;5018793;28;20041;-83
2023/03/26 11:33:22;;;;;;;2.92;1.10;;;9.60;99.90;;;;;;5030730;28;20113;-85
2023/03/26 11:35:48;;;;;;;;;;;9.70;99.90;;;;;;5028071;28;20026;-85
2023/03/26 11:38:39;;;;;;;5.25;3.08;;;9.70;99.90;;;;;;5022351;28;19944;-82
2023/03/26 11:41:12;;;;;;;34.55;21.10;;;10.00;99.90;;;;;;5025672;28;20096;-85
2023/03/26 11:43:37;;;;;;;18.05;9.30;;;10.20;99.90;;;;;;5026574;28;20041;-84
2023/03/26 11:46:10;;;;;;;4.57;1.60;;;10.40;99.90;;;;;;5023885;28;20037;-84
2023/03/26 11:48:39;;;;;;;1.75;0.88;;;10.30;99.90;;;;;;5018591;28;20085;-84
2023/03/26 11:51:07;;;;;;;5.03;0.60;;;11.20;99.90;;;;;;5026972;28;20052;-79
2023/03/26 11:53:37;;;;;;;4.10;0.98;;;11.30;99.90;;;;;;4993331;28;20108;-77
2023/03/26 11:56:07;;;;;;;2.33;0.50;;;11.70;99.90;;;;;;5005109;28;20033;-76
2023/03/26 11:58:38;;;;;;;0.70;0.50;;;10.50;99.90;;;;;;5005366;28;20056;-77
2023/03/26 12:01:11;;;;;;;2.22;0.47;;;10.50;99.90;;;;;;5022932;28;20537;-77
2023/03/26 12:03:39;;;;;;;3.35;1.25;;;10.60;99.90;;;;;;5033240;28;20033;-77
2023/03/26 12:06:05;;;;;;;3.00;0.60;;;10.70;99.90;;;;;;5021394;28;20034;-77
2023/03/26 12:08:37;;;;;;;1.85;0.50;;;10.60;99.90;;;;;;4998168;28;20698;-77
2023/03/26 12:11:09;;;;;;;3.30;0.65;;;11.20;99.90;;;;;;5005266;28;20042;-78
2023/03/26 12:13:51;;;;;;;1.48;0.60;;;10.90;99.90;;;;;;5002389;28;22166;-78
2023/03/26 12:16:18;;;;;;;2.15;0.77;;;11.00;99.90;;;;;;5009959;28;20112;-76
2023/03/26 12:18:44;;;;;;;1.63;0.70;;;11.40;99.90;;;;;;4310675;28;10000037;-77
2023/03/26 12:21:15;;;;;;;1.02;0.57;;;11.20;99.90;;;;;;5001730;28;20037;-77
2023/03/26 12:23:54;;;;;;;1.10;0.80;;;11.20;99.90;;;;;;5019355;28;20044;-78
2023/03/26 12:26:32;;;;;;;1.95;0.40;;;11.20;99.90;;;;;;5033003;28;20030;-77
2023/03/26 12:29:03;;;;;;;1.75;0.57;;;11.40;99.90;;;;;;5032036;28;20042;-77
2023/03/26 12:31:29;;;;;;;1.17;0.65;;;12.70;99.90;;;;;;5001613;28;20065;-77
2023/03/26 12:34:06;;;;;;;1.50;0.85;;;11.50;99.90;;;;;;5000802;28;20489;-78
2023/03/26 12:36:32;;;;;;;0.70;0.50;;;11.80;99.90;;;;;;4993147;28;20084;-78
2023/03/26 12:38:58;;;;;;;1.63;0.80;;;12.20;99.90;;;;;;5006864;28;20457;-78
2023/03/26 12:41:39;;;;;;;0.60;0.50;;;11.60;99.90;;;;;;4997895;28;20544;-78
2023/03/26 12:44:33;;;;;;;1.08;0.40;;;11.90;99.90;;;;;;5003482;28;20064;-77
2023/03/26 12:47:41;;;;;;;0.60;0.30;;;11.10;99.90;;;;;;5016269;28;20030;-77
2023/03/26 12:50:11;;;;;;;3.92;0.70;;;11.80;99.90;;;;;;5013159;28;20049;-79
2023/03/26 12:52:55;;;;;;;0.30;0.22;;;12.20;99.90;;;;;;5028403;28;20061;-78
2023/03/26 12:55:59;;;;;;;0.40;0.40;;;11.90;99.90;;;;;;4999835;28;20045;-78
2023/03/26 12:58:50;;;;;;;2.15;0.70;;;11.80;99.90;;;;;;5027852;28;20666;-78
2023/03/26 13:01:32;;;;;;;0.60;0.40;;;11.90;99.90;;;;;;5005063;28;20033;-80
2023/03/26 13:04:09;;;;;;;0.80;0.35;;;;;;;;;;4999805;28;20034;-78
2023/03/26 13:06:46;;;;;;;1.27;0.50;;;;;;;;;;4993401;28;20049;-78
2023/03/26 13:09:28;;;;;;;0.68;0.47;;;;;;;;;;5017536;28;20045;-78
2023/03/26 13:12:06;;;;;;;0.20;0.13;;;;;;;;;;5031233;28;20061;-78
2023/03/26 13:14:38;;;;;;;1.92;0.50;;;;;;;;;;5003939;28;20536;-78
2023/03/26 13:17:08;;;;;;;1.20;0.50;;;;;;;;;;5012206;28;20038;-78
2023/03/26 13:19:39;;;;;;;0.38;0.38;;;;;;;;;;5015561;28;20044;-78
2023/03/26 13:22:14;;;;;;;0.43;0.35;;;;;;;;;;5020652;28;20167;-78
2023/03/26 13:24:43;;;;;;;0.40;0.40;;;;;;;;;;5018442;28;20133;-79
2023/03/26 13:27:28;;;;;;;1.33;0.45;;;;;;;;;;5020706;28;20124;-79
2023/03/26 13:29:57;;;;;;;1.42;0.55;;;;;;;;;;5021854;28;20068;-79
2023/03/26 13:32:28;;;;;;;1.23;0.65;;;;;;;;;;5022793;28;20025;-79
2023/03/26 13:35:03;;;;;;;0.90;0.50;;;;;;;;;;5022000;28;20041;-78
2023/03/26 13:37:48;;;;;;;0.65;0.50;;;;;;;;;;5018267;28;20037;-79
2023/03/26 13:40:16;;;;;;;0.43;0.32;;;;;;;;;;5016838;28;20799;-79
2023/03/26 13:42:52;;;;;;;1.95;0.65;;;;;;;;;;5016802;28;20052;-80
2023/03/26 13:45:37;;;;;;;3.10;0.65;;;;;;;;;;5009687;28;20038;-79
2023/03/26 13:48:03;;;;;;;0.68;0.47;;;;;;;;;;5026138;28;20042;-80
2023/03/26 13:50:39;;;;;;;1.67;0.77;;;12.40;99.90;;;;;;5022826;28;20075;-79